Kezdőlap
METAR-TAF:

METAR-TAF

Repülőterek :

Párizs-Charles de Gaulle repülőtér

Párizs-Charles de Gaulle, Franciaország

földrajzi szélesség: 49-01N, földrajzi hosszúság: 002-32E, magasság: 118 m

Jelenlegi meteorológiai megfigyelések

A jelentés 24 perccel ezelõtt készült, 06:00 UTC
Északi szél 7 kt
Hőmérséklet 16°C
Páratartalom 68%
Légköri nyomás 1035 hPa
Látótávolság 10 km, vagy több
felhőtlen 1500 m magasságban, és nincs gomolyfelhõ

METAR: LFPG 260600Z AUTO 01007KT CAVOK 16/10 Q1035 NOSIG

Idő: 08:24 (06:24 UTC)

Előrejelzés

A jelentés 1 órával és 24 perccel ezelõtt készült, 05:00 UTC
Az előrejelzés 26-én 06 óra UTC és 27-én 12 óra UTC között érvényes
Észak-északkeleti szél 8 kt
Látótávolság 10 km, vagy több
felhőtlen 1500 m magasságban, és nincs gomolyfelhõ

TAF: LFPG 260500Z 2606/2712 03008KT CAVOK TX26/2615Z TN12/2704Z

Meteorológiai megfigyelések és előrejelzések több, mint 4000 repülőtéren (METAR és TAF jelentéseket).

A térképen piros és sárga pontok jelzik az elérhető meteorológiai állomásokat.

Mozgassa az egeret a pont fölött, hogy megjelenjen az állomás neve.

Azután kattintson az időjárási megfigyelések és előrejelzések megtekintéséhez.

A térkép megváltoztatása: kattintson a fekete keresztel jelölt zöld gombra ráközelítéshez, a vonallal jelölt zöld gombra távolításhoz, vagy a zöld nyilakra a szomszédos térképek eléréséhez.


METAR-TAF: